Latest Weather Observations for Borroloola

IDD60801

Issued at 7:11 pm CST Sunday 19 August 2018 (issued every 10 minutes, with the page automatically refreshed every 10 minutes)

About weather observations | Map of weather stations | Latest weather observations for NT | Other Formats
Station Details ID: 014723 Name: BORROLOOLA AIRPORT Lat: -16.08 Lon: 136.30 Height: 16.1 m
Data from the previous 72 hours. | See also: Recent months at Borroloola
Date/Time
CST
Temp
°C
App
Temp
°C
Dew
Point
°C
Rel
Hum
%
Delta-T
°C
Wind Press
QNH
hPa
Press
MSL
hPa
Rain since
9am
mm
Dir  Spd
km/h
Gust
km/h
Spd
kts
Gust
kts
19/07:00pm 24.4 22.7 8.4 36 8.5 NNE 7 20 4 11 1016.4 1016.3 0.0
19/06:30pm 25.6 22.7 8.1 33 9.4 NNE 13 15 7 8 1015.9 1015.8 0.0
19/06:00pm 29.0 24.1 -7.0 9 15.1 ESE 11 15 6 8 1015.5 1015.4 0.0
19/05:30pm 31.2 24.8 -6.9 8 16.3 SE 19 30 10 16 1015.1 1015.0 0.0
19/05:00pm 31.9 24.8 -8.1 7 16.9 SE 22 30 12 16 1014.9 1014.8 0.0
19/04:30pm 32.7 26.0 -7.6 7 17.3 SE 20 32 11 17 1014.6 1014.5 0.0
19/04:00pm 32.3 25.6 -7.8 7 17.1 SSE 20 33 11 18 1014.6 1014.5 0.0
19/03:30pm 33.1 26.1 -7.3 7 17.4 SE 22 39 12 21 1014.6 1014.5 0.0
19/03:00pm 33.1 25.7 -7.3 7 17.4 S 24 35 13 19 1014.7 1014.6 0.0
19/02:30pm 32.9 26.0 -5.7 8 17.1 SE 22 39 12 21 1015.1 1015.0 0.0
19/02:00pm 33.6 26.2 -6.9 7 17.7 SSE 24 41 13 22 1015.4 1015.3 0.0
19/01:30pm 32.8 25.2 -5.7 8 17.0 ESE 26 39 14 21 1016.0 1015.9 0.0
19/01:00pm 32.6 25.0 -5.9 8 17.0 SE 26 39 14 21 1016.2 1016.1 0.0
19/12:30pm 32.1 24.4 -6.3 8 16.7 ESE 26 37 14 20 1016.6 1016.5 0.0
19/12:00pm 31.4 23.5 -5.2 9 16.1 SE 28 41 15 22 1017.2 1017.1 0.0
19/11:30am 30.9 22.2 -5.6 9 15.9 SE 32 44 17 24 1017.6 1017.5 0.0
19/11:00am 30.1 22.2 -4.8 10 15.3 SE 28 39 15 21 1018.0 1017.9 0.0
19/10:30am 29.1 20.2 -5.6 10 14.9 SE 33 48 18 26 1018.3 1018.2 0.0
19/10:00am 28.1 19.2 -5.1 11 14.3 SE 33 50 18 27 1018.3 1018.2 0.0
19/09:47am 27.7 19.8 -4.3 12 13.9 ESE 28 48 15 26 1018.4 1018.3 0.0
19/09:30am 26.5 18.4 -3.1 14 13.0 ESE 30 43 16 23 1018.5 1018.4 0.0
19/09:17am 26.1 18.7 -3.5 14 12.9 SE 26 44 14 24 1018.5 1018.4 0.0
19/09:00am 25.3 21.0 0.8 20 11.4 SE 13 20 7 11 1018.4 1018.3 0.0
19/08:30am 21.4 18.9 4.0 32 8.4 SSW 6 9 3 5 1018.3 1018.2 0.0
19/08:00am 18.0 17.2 6.5 47 5.7 CALM 0 6 0 3 1018.1 1018.0 0.0
19/07:30am 13.7 13.1 7.2 65 3.2 CALM 0 0 0 0 1017.9 1017.8 0.0
19/07:00am 11.5 9.6 6.6 72 2.3 SSW 6 7 3 4 1017.3 1017.2 0.0
19/06:30am 10.8 9.9 6.0 72 2.2 CALM 0 0 0 0 1017.0 1016.9 0.0
19/06:00am 11.7 11.0 7.0 73 2.2 CALM 0 0 0 0 1016.6 1016.5 0.0
19/05:30am 11.3 10.4 6.0 70 2.5 CALM 0 0 0 0 1016.1 1016.0 0.0
19/05:00am 11.8 11.1 6.9 72 2.3 CALM 0 0 0 0 1015.8 1015.7 0.0
19/04:30am 12.1 11.2 6.2 67 2.8 CALM 0 0 0 0 1015.7 1015.6 0.0
19/04:00am 12.6 11.9 7.1 69 2.7 CALM 0 0 0 0 1015.4 1015.3 0.0
19/03:30am 12.8 12.1 7.0 68 2.8 CALM 0 0 0 0 1015.1 1015.0 0.0
19/03:00am 13.2 12.4 6.5 64 3.2 CALM 0 0 0 0 1015.3 1015.2 0.0
19/02:30am 13.5 12.7 6.4 62 3.4 CALM 0 0 0 0 1015.5 1015.4 0.0
19/02:00am 13.6 12.7 6.2 61 3.5 CALM 0 0 0 0 1015.6 1015.5 0.0
19/01:30am 14.2 13.4 6.6 60 3.7 CALM 0 0 0 0 1015.8 1015.7 0.0
19/01:00am 14.4 12.5 6.7 60 3.7 SSE 6 9 3 5 1016.0 1015.9 0.0
19/12:30am 14.2 12.4 5.3 55 4.2 NNE 4 7 2 4 1016.0 1015.9 0.0
19/12:00am 14.8 13.8 5.6 54 4.4 CALM 0 0 0 0 1016.0 1015.9 0.0
 
Date/Time
CST
Temp
°C
App
Temp
°C
Dew
Point
°C
Rel
Hum
%
Delta-T
°C
Wind Press
QNH
hPa
Press
MSL
hPa
Rain since
9am
mm
Dir  Spd
km/h
Gust
km/h
Spd
kts
Gust
kts
18/11:30pm 15.6 14.8 6.3 54 4.5 CALM 0 0 0 0 1016.0 1015.9 0.0
18/11:00pm 16.7 16.0 6.8 52 4.9 CALM 0 0 0 0 1015.9 1015.8 0.0
18/10:30pm 17.0 16.2 6.5 50 5.2 CALM 0 0 0 0 1015.8 1015.7 0.0
18/10:00pm 17.9 16.9 5.8 45 5.9 CALM 0 0 0 0 1015.6 1015.5 0.0
18/09:30pm 18.6 17.4 4.4 39 6.8 CALM 0 0 0 0 1015.5 1015.4 0.0
18/09:00pm 21.3 20.4 6.0 37 7.7 CALM 0 0 0 0 1015.5 1015.4 0.0
18/08:30pm 22.0 20.8 4.6 32 8.5 CALM 0 0 0 0 1015.2 1015.1 0.0
18/08:00pm 23.8 21.6 5.2 30 9.3 NNE 6 9 3 5 1014.9 1014.8 0.0
18/07:30pm 24.5 22.0 4.8 28 9.9 NE 7 11 4 6 1014.6 1014.5 0.0
18/07:00pm 25.6 22.2 4.1 25 10.7 NE 11 15 6 8 1014.4 1014.3 0.0
18/06:30pm 26.7 21.4 3.2 22 11.6 NE 20 26 11 14 1013.9 1013.8 0.0
18/06:00pm 27.4 22.2 2.5 20 12.2 NE 19 28 10 15 1013.6 1013.5 0.0
18/05:30pm 28.8 22.8 1.3 17 13.3 NE 22 30 12 16 1013.2 1013.1 0.0
18/05:00pm 29.8 23.5 1.3 16 13.9 NE 24 33 13 18 1013.0 1012.9 0.0
18/04:30pm 30.6 24.2 1.0 15 14.4 NNE 24 35 13 19 1012.8 1012.7 0.0
18/04:00pm 31.6 25.7 1.8 15 14.8 NE 22 30 12 16 1012.6 1012.5 0.0
18/03:30pm 31.8 25.6 2.0 15 14.9 NNE 24 35 13 19 1012.4 1012.3 0.0
18/03:00pm 32.3 25.8 2.4 15 15.1 NE 26 37 14 20 1012.5 1012.4 0.0
18/02:30pm 32.8 26.3 2.8 15 15.3 NE 26 37 14 20 1012.6 1012.5 0.0
18/02:00pm 32.9 29.6 4.6 17 14.9 ENE 11 24 6 13 1012.9 1012.8 0.0
18/01:30pm 32.8 28.7 4.6 17 14.8 SSE 15 24 8 13 1013.3 1013.2 0.0
18/01:00pm 32.3 28.0 3.3 16 14.9 ENE 15 26 8 14 1013.7 1013.6 0.0
18/12:30pm 32.5 27.5 3.5 16 14.9 SE 19 30 10 16 1014.2 1014.1 0.0
18/12:00pm 32.0 27.4 3.9 17 14.5 ESE 17 30 9 16 1014.6 1014.5 0.0
18/11:30am 32.4 28.1 5.1 18 14.4 SE 17 32 9 17 1015.2 1015.1 0.0
18/11:00am 31.0 26.9 6.1 21 13.3 SSE 17 24 9 13 1015.6 1015.5 0.0
18/10:30am 30.3 27.5 8.7 26 12.0 S 13 20 7 11 1016.0 1015.9 0.0
18/10:00am 28.5 25.7 8.7 29 10.9 S 13 19 7 10 1016.2 1016.1 0.0
18/09:30am 27.1 24.2 9.5 33 9.7 SSW 15 20 8 11 1016.3 1016.2 0.0
18/09:00am 24.8 22.4 9.9 39 8.2 S 13 17 7 9 1016.4 1016.3 0.0
18/08:30am 22.0 19.9 9.9 46 6.5 S 11 13 6 7 1016.1 1016.0 0.0
18/08:00am 18.9 17.7 10.2 57 4.7 SSW 7 9 4 5 1015.9 1015.8 0.0
18/07:30am 15.0 14.9 9.4 69 2.9 CALM 0 6 0 3 1015.8 1015.7 0.0
18/07:00am 12.2 11.7 7.9 75 2.1 CALM 0 0 0 0 1015.4 1015.3 0.0
18/06:30am 12.1 11.6 8.0 76 2.0 CALM 0 0 0 0 1015.1 1015.0 0.0
18/06:00am 12.4 12.0 8.3 76 2.0 CALM 0 0 0 0 1014.9 1014.8 0.0
18/05:30am 12.3 11.7 7.6 73 2.3 CALM 0 0 0 0 1014.6 1014.5 0.0
18/05:00am 13.1 12.5 7.5 69 2.7 CALM 0 0 0 0 1014.4 1014.3 0.0
18/04:30am 13.0 12.4 7.5 69 2.7 CALM 0 0 0 0 1014.4 1014.3 0.0
18/04:00am 13.4 12.8 7.6 68 2.8 CALM 0 0 0 0 1014.3 1014.2 0.0
18/03:30am 13.4 12.8 7.2 66 3.0 CALM 0 0 0 0 1014.2 1014.1 0.0
18/03:00am 13.8 13.4 8.2 69 2.8 CALM 0 0 0 0 1014.1 1014.0 0.0
18/02:30am 14.0 13.4 7.5 65 3.2 CALM 0 0 0 0 1014.1 1014.0 0.0
18/02:00am 14.5 14.1 8.2 66 3.2 CALM 0 0 0 0 1014.3 1014.2 0.0
18/01:30am 14.4 13.8 7.2 62 3.5 CALM 0 0 0 0 1014.5 1014.4 0.0
18/01:00am 14.8 14.2 7.4 61 3.7 CALM 0 0 0 0 1014.6 1014.5 0.0
18/12:30am 15.5 14.2 7.5 59 4.0 NE 4 6 2 3 1014.7 1014.6 0.0
18/12:00am 16.5 13.7 8.7 60 4.0 SSE 13 15 7 8 1015.0 1014.9 0.0
 
Date/Time
CST
Temp
°C
App
Temp
°C
Dew
Point
°C
Rel
Hum
%
Delta-T
°C
Wind Press
QNH
hPa
Press
MSL
hPa
Rain since
9am
mm
Dir  Spd
km/h
Gust
km/h
Spd
kts
Gust
kts
17/11:30pm 16.0 14.0 6.4 53 4.7 N 6 7 3 4 1014.5 1014.4 0.0
17/11:00pm 16.9 16.3 7.5 54 4.7 CALM 0 0 0 0 1014.3 1014.2 0.0
17/10:30pm 17.0 16.1 6.2 49 5.3 CALM 0 0 0 0 1014.2 1014.1 0.0
17/10:00pm 18.0 17.3 7.1 49 5.5 CALM 0 0 0 0 1014.2 1014.1 0.0
17/09:30pm 19.4 18.9 7.8 47 5.9 CALM 0 0 0 0 1014.1 1014.0 0.0
17/09:00pm 20.5 19.1 7.2 42 6.8 N 4 6 2 3 1013.8 1013.7 0.0
17/08:30pm 22.2 20.6 8.0 40 7.4 N 6 7 3 4 1013.5 1013.4 0.0
17/08:00pm 23.9 22.2 8.3 37 8.3 NNE 7 9 4 5 1013.2 1013.1 0.0
17/07:30pm 24.5 22.2 7.6 34 8.9 NE 9 13 5 7 1012.7 1012.6 0.0
17/07:00pm 25.4 22.4 6.1 29 10.0 NNE 11 17 6 9 1012.2 1012.1 0.0
17/06:30pm 26.5 22.5 4.9 25 11.0 NE 15 24 8 13 1011.8 1011.7 0.0
17/06:00pm 27.6 22.1 4.0 22 11.9 NE 22 32 12 17 1011.4 1011.3 0.0
17/05:30pm 28.6 22.9 4.8 22 12.2 NE 24 37 13 20 1011.3 1011.2 0.0
17/05:00pm 29.2 23.3 4.0 20 12.8 NNE 24 35 13 19 1010.9 1010.8 0.0
17/04:30pm 30.6 25.7 5.1 20 13.4 NE 20 33 11 18 1010.6 1010.5 0.0
17/04:00pm 30.7 25.3 4.4 19 13.6 NNE 22 33 12 18 1010.3 1010.2 0.0
17/03:30pm 31.8 26.6 5.3 19 14.0 NNE 22 32 12 17 1010.2 1010.1 0.0
17/03:00pm 32.0 27.8 3.9 17 14.5 NE 15 28 8 15 1010.3 1010.2 0.0
17/02:30pm 32.4 28.7 4.2 17 14.7 ENE 13 24 7 13 1010.7 1010.6 0.0
17/02:00pm 32.5 27.6 4.3 17 14.7 E 19 28 10 15 1011.1 1011.0 0.0
17/01:30pm 31.5 26.9 3.5 17 14.3 E 17 30 9 16 1011.4 1011.3 0.0
17/01:00pm 31.1 25.9 2.3 16 14.4 ESE 19 37 10 20 1011.8 1011.7 0.0
17/12:30pm 31.5 26.7 2.7 16 14.6 SE 17 28 9 15 1012.2 1012.1 0.0
17/12:00pm 31.2 26.9 3.3 17 14.2 SE 15 24 8 13 1012.8 1012.7 0.0
17/11:30am 30.4 26.4 2.6 17 13.9 SE 13 24 7 13 1013.5 1013.4 0.0
17/11:00am 29.4 25.9 3.4 19 13.1 SE 11 20 6 11 1014.2 1014.1 0.0
17/10:30am 28.0 25.5 5.0 23 11.8 SSE 7 15 4 8 1014.8 1014.7 0.0
17/10:00am 26.4 24.0 5.4 26 10.8 SSW 7 13 4 7 1015.1 1015.0 0.0
17/09:30am 25.4 22.8 6.1 29 10.0 S 9 13 5 7 1015.2 1015.1 0.0
17/09:00am 22.9 21.4 6.6 35 8.4 S 4 7 2 4 1015.1 1015.0 0.0
17/08:30am 19.0 17.9 6.8 45 6.1 S 2 9 1 5 1014.9 1014.8 0.0
17/08:00am 16.6 16.2 8.3 58 4.2 CALM 0 0 0 0 1014.8 1014.7 0.0
17/07:30am 11.9 10.8 6.8 71 2.4 E 2 6 1 3 1014.4 1014.3 0.0
17/07:00am 10.4 9.2 6.4 76 1.9 SSE 2 7 1 4 1014.3 1014.2 0.0
17/06:30am 10.5 9.7 6.3 75 2.0 CALM 0 0 0 0 1013.9 1013.8 0.0
17/06:00am 10.6 9.6 5.8 72 2.2 CALM 0 2 0 1 1013.7 1013.6 0.0
17/05:30am 11.2 9.7 6.9 75 2.0 SSE 4 7 2 4 1013.4 1013.3 0.0
17/05:00am 10.7 9.0 5.7 71 2.3 SE 4 9 2 5 1013.3 1013.2 0.0
17/04:30am 11.5 10.6 6.0 69 2.6 CALM 0 0 0 0 1013.2 1013.1 0.0
17/04:00am 12.0 10.8 6.3 68 2.7 SW 2 6 1 3 1013.2 1013.1 0.0
17/03:30am 12.0 11.2 6.3 68 2.7 CALM 0 0 0 0 1013.2 1013.1 0.0
17/03:00am 11.9 10.9 5.8 66 2.8 CALM 0 0 0 0 1013.3 1013.2 0.0
17/02:30am 12.4 11.4 5.8 64 3.1 CALM 0 0 0 0 1013.5 1013.4 0.0
17/02:00am 12.6 11.3 6.0 64 3.1 SW 2 7 1 4 1013.6 1013.5 0.0
17/01:30am 12.3 10.5 5.5 63 3.2 S 4 9 2 5 1013.7 1013.6 0.0
17/01:00am 13.8 11.8 6.2 60 3.6 SE 6 7 3 4 1013.8 1013.7 0.0
17/12:30am 13.6 11.4 6.0 60 3.6 SE 7 9 4 5 1014.0 1013.9 0.0
17/12:00am 14.2 11.7 6.6 60 3.7 SE 9 11 5 6 1013.9 1013.8 0.0
 
Date/Time
CST
Temp
°C
App
Temp
°C
Dew
Point
°C
Rel
Hum
%
Delta-T
°C
Wind Press
QNH
hPa
Press
MSL
hPa
Rain since
9am
mm
Dir  Spd
km/h
Gust
km/h
Spd
kts
Gust
kts
16/11:30pm 15.0 13.7 5.8 54 4.4 NNE 2 7 1 4 1013.9 1013.8 0.0
16/11:00pm 15.0 13.9 5.0 51 4.7 CALM 0 0 0 0 1013.8 1013.7 0.0
16/10:30pm 16.0 14.2 5.6 50 5.0 NNE 4 7 2 4 1013.9 1013.8 0.0
16/10:00pm 16.4 15.3 5.1 47 5.4 CALM 0 4 0 2 1013.8 1013.7 0.0
16/09:30pm 17.5 16.3 4.5 42 6.2 CALM 0 0 0 0 1013.7 1013.6 0.0
16/09:00pm 20.1 18.0 6.5 41 6.8 NNE 7 7 4 4 1013.6 1013.5 0.0
16/08:30pm 20.8 19.6 4.4 34 8.0 CALM 0 6 0 3 1013.2 1013.1 0.0
16/08:00pm 21.7 19.1 4.3 32 8.5 NNW 7 11 4 6 1012.9 1012.8 0.0
16/07:30pm 23.0 19.0 3.0 27 9.6 NNE 13 17 7 9 1012.3 1012.2 0.0

Other Formats:

Comma delimited format used in spreadsheet applications
http://www.bom.gov.au/fwo/IDD60801/IDD60801.94152.axf

JavaScript Object Notation format (JSON) in row-major order
http://www.bom.gov.au/fwo/IDD60801/IDD60801.94152.json